CN4 weather

CLOSED Trout Brook Airport
New Brunswick, Canada

Public forecast

Using degrees Celsius for public forecast. Weather courtesy of forecast.io.

METAR (pilot weather report)

Closest report is Greater Moncton International Airport, 39.0 nm (72.3 km) ESE. Retrieved 2019/08/24 20:00 UTC (59 minutes ago):

CYQM 242000Z 36014KT 15SM BKN036 16/09 A3023 RMK SC7 SLP238

TAF (pilot weather forecast)

Closest forecast is Greater Moncton International Airport, 39.0 nm (72.3 km) ESE. Retrieved 2019/08/24 18:42 UTC (2 hours ago):

TAF CYQM 241738Z 2418/2518 01015G25KT P6SM BKN025 TEMPO 2418/2420 BKN020 BECMG 2420/2422 01010G20KT FM242300 01007KT P6SM SCT020 FM250300 VRB03KT P6SM FEW015 PROB30 2507/2510 2SM BR FM251500 05010G20KT P6SM FEW030 RMK NXT FCST BY 250000Z